createdAt,value
2019-01-12T00:01:06.087Z,19.50
2019-01-12T00:03:35.646Z,18.90
2019-01-12T00:06:04.416Z,19.10
2019-01-12T00:08:33.096Z,19.00
2019-01-12T00:11:01.830Z,19.10
2019-01-12T00:13:31.070Z,19.30
2019-01-12T00:16:01.007Z,19.30
2019-01-12T00:18:30.289Z,19.20
2019-01-12T00:21:00.477Z,19.30
2019-01-12T00:23:30.470Z,19.60
2019-01-12T00:25:59.474Z,19.20
2019-01-12T00:28:28.735Z,19.60
2019-01-12T00:30:58.031Z,19.70
2019-01-12T00:33:26.871Z,19.80
2019-01-12T00:35:55.985Z,20.30
2019-01-12T00:38:26.244Z,20.30
2019-01-12T00:40:55.901Z,20.20
2019-01-12T00:43:25.314Z,20.10
2019-01-12T00:45:54.635Z,20.60
2019-01-12T00:48:23.171Z,20.50
2019-01-12T00:50:52.185Z,20.70
2019-01-12T00:53:21.435Z,20.60
2019-01-12T00:55:50.813Z,20.90
2019-01-12T00:58:20.188Z,20.90
2019-01-12T01:00:49.638Z,20.80
2019-01-12T01:03:18.963Z,21.30
2019-01-12T01:05:48.237Z,20.60
2019-01-12T01:08:17.607Z,20.60
2019-01-12T01:10:47.021Z,20.80
2019-01-12T01:13:16.183Z,20.70
2019-01-12T01:15:45.404Z,21.30
2019-01-12T01:18:14.708Z,21.50
2019-01-12T01:20:44.085Z,21.30
2019-01-12T01:23:13.188Z,21.60
2019-01-12T01:25:42.634Z,21.50
2019-01-12T01:28:11.902Z,21.40
2019-01-12T01:30:41.215Z,21.40
2019-01-12T01:33:09.833Z,21.80
2019-01-12T01:35:38.365Z,21.50
2019-01-12T01:38:07.040Z,21.50
2019-01-12T01:40:35.689Z,21.50
2019-01-12T01:43:04.879Z,22.20
2019-01-12T01:45:33.965Z,21.90
2019-01-12T01:48:03.249Z,21.10
2019-01-12T01:50:32.376Z,22.00
2019-01-12T01:53:01.826Z,22.00
2019-01-12T01:55:31.522Z,21.90
2019-01-12T01:58:00.797Z,21.80
2019-01-12T02:00:29.963Z,21.90
2019-01-12T02:02:59.153Z,21.80
2019-01-12T02:05:28.506Z,21.40
2019-01-12T02:07:57.772Z,21.40
2019-01-12T02:10:27.095Z,21.20
2019-01-12T02:12:56.457Z,21.40
2019-01-12T02:15:25.197Z,21.80
2019-01-12T02:17:54.627Z,21.90
2019-01-12T02:20:23.297Z,22.00
2019-01-12T02:22:52.869Z,21.80
2019-01-12T02:25:22.105Z,22.00
2019-01-12T02:27:51.654Z,22.20
2019-01-12T02:30:24.200Z,22.60
2019-01-12T02:32:53.491Z,22.60
2019-01-12T02:35:22.652Z,22.80
2019-01-12T02:37:51.881Z,22.90
2019-01-12T02:40:21.171Z,23.00
2019-01-12T02:42:50.470Z,22.90
2019-01-12T02:45:19.577Z,22.90
2019-01-12T02:47:50.392Z,23.10
2019-01-12T02:50:19.772Z,22.90
2019-01-12T02:52:48.968Z,22.80
2019-01-12T02:55:18.269Z,23.30
2019-01-12T02:57:47.470Z,22.90
2019-01-12T03:00:17.451Z,23.10
2019-01-12T03:02:46.282Z,23.10
2019-01-12T03:05:16.534Z,23.30
2019-01-12T03:07:45.827Z,22.60
2019-01-12T03:10:15.575Z,22.90
2019-01-12T03:12:45.610Z,22.90
2019-01-12T03:15:16.092Z,23.10
2019-01-12T03:17:45.679Z,23.30
2019-01-12T03:20:16.282Z,23.50
2019-01-12T03:22:45.666Z,23.50
2019-01-12T03:25:18.688Z,23.80
2019-01-12T03:27:46.478Z,23.50
2019-01-12T03:30:16.489Z,23.40
2019-01-12T03:32:45.608Z,23.40
2019-01-12T03:35:15.052Z,23.70
2019-01-12T03:37:44.095Z,23.70
2019-01-12T03:40:17.440Z,23.60
2019-01-12T03:42:46.861Z,23.60
2019-01-12T03:45:17.829Z,24.00
2019-01-12T03:47:46.883Z,23.60
2019-01-12T03:50:16.398Z,23.90
2019-01-12T03:52:46.525Z,24.40
2019-01-12T03:55:15.994Z,24.20
2019-01-12T03:57:45.657Z,24.40
2019-01-12T04:00:19.717Z,23.90
2019-01-12T04:02:49.177Z,24.10
2019-01-12T04:05:18.813Z,24.10
2019-01-12T04:07:47.928Z,23.90
2019-01-12T04:10:17.241Z,23.90
2019-01-12T04:12:46.428Z,23.60
2019-01-12T04:15:16.972Z,23.80
2019-01-12T04:17:46.351Z,23.30
2019-01-12T04:20:16.426Z,23.40
2019-01-12T04:22:45.887Z,23.80
2019-01-12T04:25:15.177Z,24.00
2019-01-12T04:27:44.824Z,23.80
2019-01-12T04:30:15.382Z,24.20
2019-01-12T04:32:44.961Z,23.60
2019-01-12T04:35:13.801Z,23.90
2019-01-12T04:37:42.427Z,23.80
2019-01-12T04:40:14.347Z,23.80
2019-01-12T04:42:44.367Z,23.70
2019-01-12T04:45:13.947Z,23.50
2019-01-12T04:47:43.205Z,23.50
2019-01-12T04:50:14.532Z,23.50
2019-01-12T04:52:43.603Z,23.70
2019-01-12T04:55:14.231Z,24.00
2019-01-12T04:57:44.018Z,24.00
2019-01-12T05:00:14.877Z,23.70
2019-01-12T05:02:44.245Z,23.60
2019-01-12T05:05:13.709Z,23.20
2019-01-12T05:07:43.204Z,23.00
2019-01-12T05:10:13.822Z,22.80
2019-01-12T05:12:42.645Z,22.50
2019-01-12T05:15:13.074Z,22.50
2019-01-12T05:17:42.063Z,22.10
2019-01-12T05:20:13.819Z,22.00
2019-01-12T05:22:43.729Z,21.80
2019-01-12T05:25:14.015Z,21.80
2019-01-12T05:27:43.228Z,22.20
2019-01-12T05:30:19.452Z,22.40
2019-01-12T05:32:49.502Z,22.80
2019-01-12T05:35:18.879Z,22.40
2019-01-12T05:37:48.485Z,22.60
2019-01-12T05:40:17.536Z,22.60
2019-01-12T05:42:46.433Z,22.60
2019-01-12T05:45:15.756Z,22.50
2019-01-12T05:47:44.927Z,22.20
2019-01-12T05:50:14.128Z,22.30
2019-01-12T05:52:43.354Z,22.60
2019-01-12T05:55:12.479Z,22.40
2019-01-12T05:57:41.139Z,22.20
2019-01-12T06:00:13.925Z,22.50
2019-01-12T06:02:42.579Z,22.50
2019-01-12T06:05:12.473Z,21.60
2019-01-12T06:07:41.738Z,21.70
2019-01-12T06:10:12.710Z,21.90
2019-01-12T06:12:41.855Z,22.00
2019-01-12T06:15:12.078Z,21.40
2019-01-12T06:17:42.142Z,21.40
2019-01-12T06:20:15.325Z,21.60
2019-01-12T06:22:44.788Z,21.50
2019-01-12T06:25:13.760Z,21.50
2019-01-12T06:27:42.850Z,21.50
2019-01-12T06:30:15.288Z,21.90
2019-01-12T06:32:44.483Z,21.60
2019-01-12T06:35:14.401Z,21.60
2019-01-12T06:37:43.818Z,21.50
2019-01-12T06:40:14.841Z,21.80
2019-01-12T06:42:43.594Z,21.90
2019-01-12T06:45:13.856Z,22.00
2019-01-12T06:47:43.192Z,22.30
2019-01-12T06:50:15.085Z,22.10
2019-01-12T06:52:44.415Z,22.50
2019-01-12T06:55:13.536Z,22.60
2019-01-12T06:57:42.970Z,22.70
2019-01-12T07:00:14.964Z,22.50
2019-01-12T07:02:45.354Z,22.80
2019-01-12T07:05:14.539Z,23.00
2019-01-12T07:07:44.815Z,23.10
2019-01-12T07:10:15.231Z,22.90
2019-01-12T07:12:44.620Z,22.60
2019-01-12T07:15:14.228Z,22.40
2019-01-12T07:17:43.384Z,23.00
2019-01-12T07:20:13.951Z,22.80
2019-01-12T07:22:43.497Z,23.30
2019-01-12T07:25:12.483Z,22.70
2019-01-12T07:27:42.044Z,22.80
2019-01-12T07:30:14.499Z,22.90
2019-01-12T07:32:44.155Z,23.50
2019-01-12T07:35:13.406Z,23.20
2019-01-12T07:37:43.415Z,23.40
2019-01-12T07:40:12.799Z,23.60
2019-01-12T07:42:42.033Z,23.90
2019-01-12T07:45:11.627Z,24.20
2019-01-12T07:47:41.018Z,24.30
2019-01-12T07:50:14.206Z,24.60
2019-01-12T07:52:43.138Z,24.40
2019-01-12T07:55:15.648Z,24.20
2019-01-12T07:57:44.821Z,24.40
2019-01-12T08:00:19.589Z,24.30
2019-01-12T08:02:48.913Z,25.10
2019-01-12T08:05:19.964Z,24.40
2019-01-12T08:07:49.151Z,24.50
2019-01-12T08:10:20.507Z,24.30
2019-01-12T08:12:49.040Z,24.30
2019-01-12T08:15:17.801Z,24.20
2019-01-12T08:17:46.664Z,24.10
2019-01-12T08:20:15.741Z,24.20
2019-01-12T08:22:44.987Z,24.10
2019-01-12T08:25:13.935Z,24.30
2019-01-12T08:27:42.998Z,24.20
2019-01-12T08:30:16.894Z,24.70
2019-01-12T08:32:45.892Z,24.70
2019-01-12T08:35:15.878Z,24.80
2019-01-12T08:37:45.326Z,24.50
2019-01-12T08:40:15.153Z,24.20
2019-01-12T08:42:45.853Z,24.30
2019-01-12T08:45:15.078Z,24.30
2019-01-12T08:47:44.264Z,24.10
2019-01-12T08:50:16.370Z,24.30
2019-01-12T08:52:45.148Z,24.40
2019-01-12T08:55:13.991Z,24.30
2019-01-12T08:57:42.749Z,24.00
2019-01-12T09:00:14.634Z,24.00
2019-01-12T09:02:43.290Z,24.00
2019-01-12T09:05:12.878Z,23.90
2019-01-12T09:07:42.149Z,24.00
2019-01-12T09:10:19.681Z,24.60
2019-01-12T09:12:49.151Z,24.10
2019-01-12T09:15:18.716Z,24.30
2019-01-12T09:17:47.953Z,24.60
2019-01-12T09:20:17.084Z,24.60
2019-01-12T09:22:46.452Z,24.50
2019-01-12T09:25:16.787Z,24.50
2019-01-12T09:27:46.034Z,24.30
2019-01-12T09:30:19.742Z,23.80
2019-01-12T09:32:49.307Z,23.50
2019-01-12T09:35:18.466Z,23.30
2019-01-12T09:37:47.189Z,23.30
2019-01-12T09:40:18.165Z,23.20
2019-01-12T09:42:48.116Z,23.00
2019-01-12T09:45:18.157Z,23.20
2019-01-12T09:47:47.368Z,23.10
2019-01-12T09:50:18.480Z,22.60
2019-01-12T09:52:47.833Z,22.50
2019-01-12T09:55:18.281Z,22.90
2019-01-12T09:57:47.615Z,22.00
2019-01-12T10:00:21.321Z,22.20
2019-01-12T10:02:50.370Z,22.60
2019-01-12T10:05:19.552Z,22.80
2019-01-12T10:07:48.804Z,22.50
2019-01-12T10:10:19.941Z,22.60
2019-01-12T10:12:49.589Z,23.30
2019-01-12T10:15:18.907Z,22.90
2019-01-12T10:17:48.142Z,22.90
2019-01-12T10:20:18.961Z,22.40
2019-01-12T10:22:47.782Z,22.70
2019-01-12T10:25:16.742Z,22.30
2019-01-12T10:27:45.478Z,22.80
2019-01-12T10:30:16.857Z,22.40
2019-01-12T10:32:46.211Z,22.10
2019-01-12T10:35:16.366Z,21.90
2019-01-12T10:37:45.606Z,21.50
2019-01-12T10:40:17.246Z,21.80
2019-01-12T10:42:47.215Z,21.40
2019-01-12T10:45:18.353Z,21.80
2019-01-12T10:47:47.391Z,21.10
2019-01-12T10:50:22.778Z,21.60
2019-01-12T10:52:52.149Z,21.40
2019-01-12T10:55:21.192Z,21.20
2019-01-12T10:57:50.520Z,21.50
2019-01-12T11:00:21.871Z,21.40
2019-01-12T11:02:51.370Z,21.20
2019-01-12T11:05:20.789Z,21.30
2019-01-12T11:07:49.420Z,21.20
2019-01-12T11:10:18.265Z,21.10
2019-01-12T11:12:47.696Z,21.40
2019-01-12T11:15:23.216Z,21.50
2019-01-12T11:17:52.842Z,21.30
2019-01-12T11:20:22.127Z,21.50
2019-01-12T11:22:51.509Z,21.20
2019-01-12T11:25:20.744Z,20.90
2019-01-12T11:27:50.239Z,21.00
2019-01-12T11:30:20.423Z,20.60
2019-01-12T11:32:50.078Z,20.80
2019-01-12T11:35:19.598Z,20.40
2019-01-12T11:37:48.618Z,20.40
2019-01-12T11:40:21.704Z,20.20
2019-01-12T11:42:51.401Z,20.00
2019-01-12T11:45:21.134Z,20.40
2019-01-12T11:47:51.751Z,20.30
2019-01-12T11:50:20.794Z,20.10
2019-01-12T11:52:50.325Z,19.90
2019-01-12T11:55:19.921Z,20.00
2019-01-12T11:57:49.443Z,20.20
2019-01-12T12:00:23.409Z,20.00
2019-01-12T12:02:52.703Z,20.00
2019-01-12T12:05:21.998Z,20.30
2019-01-12T12:07:51.311Z,20.50
2019-01-12T12:10:20.832Z,20.60
2019-01-12T12:12:49.982Z,20.30
2019-01-12T12:15:20.968Z,20.40
2019-01-12T12:17:50.360Z,20.20
2019-01-12T12:20:22.351Z,20.40
2019-01-12T12:22:51.379Z,20.70
2019-01-12T12:25:20.734Z,20.40
2019-01-12T12:27:49.760Z,20.60
2019-01-12T12:30:21.490Z,20.40
2019-01-12T12:32:50.891Z,20.50
2019-01-12T12:35:20.215Z,20.40
2019-01-12T12:37:49.533Z,20.20
2019-01-12T12:40:20.232Z,20.50
2019-01-12T12:42:49.849Z,20.60
2019-01-12T12:45:29.392Z,20.30
2019-01-12T12:47:59.411Z,20.20
2019-01-12T12:50:29.053Z,20.60
2019-01-12T12:52:58.389Z,20.90
2019-01-12T12:55:27.514Z,20.70
2019-01-12T12:57:56.819Z,21.20
2019-01-12T13:00:27.901Z,21.30
2019-01-12T13:02:58.487Z,21.20
2019-01-12T13:05:28.010Z,21.40
2019-01-12T13:07:57.299Z,21.10
2019-01-12T13:10:27.839Z,21.30
2019-01-12T13:12:57.056Z,21.30
2019-01-12T13:15:26.649Z,21.20
2019-01-12T13:17:56.948Z,21.50
2019-01-12T13:20:26.272Z,21.70
2019-01-12T13:22:55.370Z,21.60
2019-01-12T13:25:24.647Z,21.50
2019-01-12T13:27:53.867Z,22.00
2019-01-12T13:30:24.837Z,21.80
2019-01-12T13:32:53.948Z,21.70
2019-01-12T13:35:23.050Z,21.40
2019-01-12T13:37:52.400Z,21.30
2019-01-12T13:40:24.162Z,21.50
2019-01-12T13:42:54.536Z,21.50
2019-01-12T13:45:23.881Z,21.70
2019-01-12T13:47:53.250Z,21.10
2019-01-12T13:50:23.778Z,20.90
2019-01-12T13:52:53.260Z,21.00
2019-01-12T13:55:22.848Z,21.10
2019-01-12T13:57:52.238Z,21.10
2019-01-12T14:00:28.865Z,21.30
2019-01-12T14:02:57.476Z,21.40
2019-01-12T14:05:27.362Z,21.20
2019-01-12T14:07:56.837Z,22.00
2019-01-12T14:10:26.423Z,21.10
2019-01-12T14:12:55.713Z,21.30
2019-01-12T14:15:25.470Z,21.10
2019-01-12T14:17:55.053Z,21.10
2019-01-12T14:20:29.262Z,20.80
2019-01-12T14:22:58.663Z,21.10
2019-01-12T14:25:28.770Z,21.30
2019-01-12T14:27:58.186Z,21.00
2019-01-12T14:30:27.566Z,21.20
2019-01-12T14:32:56.821Z,21.30
2019-01-12T14:35:25.998Z,21.30
2019-01-12T14:37:55.154Z,20.80
2019-01-12T14:40:24.583Z,21.20
2019-01-12T14:42:54.055Z,21.00
2019-01-12T14:45:25.225Z,20.90
2019-01-12T14:47:54.097Z,21.10
2019-01-12T14:50:22.942Z,21.10
2019-01-12T14:52:53.036Z,21.70
2019-01-12T14:55:22.593Z,21.40
2019-01-12T14:57:51.586Z,21.10
2019-01-12T15:00:23.654Z,20.90
2019-01-12T15:02:52.825Z,21.60
2019-01-12T15:05:23.555Z,21.60
2019-01-12T15:07:52.986Z,21.80
2019-01-12T15:10:22.280Z,21.70
2019-01-12T15:12:51.743Z,21.80
2019-01-12T15:15:21.183Z,21.80
2019-01-12T15:17:50.411Z,22.10
2019-01-12T15:20:22.050Z,21.70
2019-01-12T15:22:51.559Z,21.40
2019-01-12T15:25:20.882Z,22.00
2019-01-12T15:27:50.334Z,21.70
2019-01-12T15:30:27.260Z,21.30
2019-01-12T15:32:56.161Z,21.50
2019-01-12T15:35:27.431Z,21.10
2019-01-12T15:37:56.793Z,21.30
2019-01-12T15:40:26.019Z,21.10
2019-01-12T15:42:55.697Z,21.50
2019-01-12T15:45:25.861Z,21.20
2019-01-12T15:47:56.220Z,21.00
2019-01-12T15:50:26.850Z,21.10
2019-01-12T15:52:56.154Z,21.30
2019-01-12T15:55:27.502Z,21.10
2019-01-12T15:57:56.801Z,20.90
2019-01-12T16:00:27.472Z,20.80
2019-01-12T16:02:56.829Z,20.60
2019-01-12T16:05:26.078Z,20.40
2019-01-12T16:07:57.096Z,20.50
2019-01-12T16:10:26.152Z,20.40
2019-01-12T16:12:55.400Z,20.30
2019-01-12T16:15:25.162Z,20.60
2019-01-12T16:17:53.941Z,21.40
2019-01-12T16:20:28.144Z,20.90
2019-01-12T16:22:56.805Z,20.80
2019-01-12T16:25:26.550Z,20.60
2019-01-12T16:27:55.910Z,20.90
2019-01-12T16:30:25.320Z,20.30
2019-01-12T16:32:55.053Z,20.30
2019-01-12T16:35:24.217Z,20.10
2019-01-12T16:37:53.517Z,20.40
2019-01-12T16:40:27.938Z,20.10
2019-01-12T16:42:57.220Z,20.00
2019-01-12T16:45:27.320Z,20.10
2019-01-12T16:47:56.990Z,19.80
2019-01-12T16:50:26.147Z,21.10
2019-01-12T16:52:55.423Z,20.20
2019-01-12T16:55:24.801Z,20.20
2019-01-12T16:57:54.381Z,19.90
2019-01-12T17:00:25.284Z,20.10
2019-01-12T17:02:54.482Z,20.20
2019-01-12T17:05:23.436Z,19.60
2019-01-12T17:07:53.625Z,20.30
2019-01-12T17:10:22.676Z,18.30
2019-01-12T17:12:51.934Z,17.50
2019-01-12T17:15:24.510Z,15.90
2019-01-12T17:17:53.552Z,14.80
2019-01-12T17:20:24.467Z,14.80
2019-01-12T17:22:55.868Z,14.00
2019-01-12T17:25:26.797Z,13.30
2019-01-12T17:27:56.189Z,12.80
2019-01-12T17:30:26.257Z,10.60
2019-01-12T17:32:55.468Z,9.50
2019-01-12T17:35:24.178Z,8.90
2019-01-12T17:37:53.236Z,8.20
2019-01-12T17:40:22.234Z,8.40
2019-01-12T17:42:51.436Z,7.40
2019-01-12T17:45:22.320Z,8.00
2019-01-12T17:47:51.687Z,7.50
2019-01-12T17:50:21.936Z,9.60
2019-01-12T17:52:50.564Z,11.20
2019-01-12T17:55:21.000Z,11.00
2019-01-12T17:57:50.224Z,9.70
2019-01-12T18:00:26.744Z,9.60
2019-01-12T18:02:55.957Z,10.10
2019-01-12T18:05:25.141Z,10.00
2019-01-12T18:07:54.332Z,10.70
2019-01-12T18:10:23.645Z,10.20
2019-01-12T18:12:52.878Z,10.30
2019-01-12T18:15:21.962Z,11.00
2019-01-12T18:17:51.196Z,10.90
2019-01-12T18:20:20.844Z,8.00
2019-01-12T18:22:49.860Z,6.50
2019-01-12T18:25:19.031Z,6.40
2019-01-12T18:27:48.451Z,5.40
2019-01-12T18:30:19.680Z,4.10
2019-01-12T18:32:48.242Z,3.10
2019-01-12T18:35:16.975Z,1.50
2019-01-12T18:37:45.705Z,1.60
2019-01-12T18:40:16.539Z,3.10
2019-01-12T18:42:45.583Z,4.40
2019-01-12T18:45:19.011Z,4.60
2019-01-12T18:47:48.399Z,5.00
2019-01-12T18:50:19.383Z,6.50
2019-01-12T18:52:48.952Z,7.20
2019-01-12T18:55:18.245Z,9.10
2019-01-12T18:57:48.199Z,8.60
2019-01-12T19:00:25.338Z,7.20
2019-01-12T19:02:55.153Z,7.00
2019-01-12T19:05:24.757Z,6.30
2019-01-12T19:07:54.114Z,5.70
2019-01-12T19:10:23.428Z,3.90
2019-01-12T19:12:52.294Z,3.10
2019-01-12T19:15:25.949Z,1.70
2019-01-12T19:17:54.720Z,3.50
2019-01-12T19:20:23.333Z,3.60
2019-01-12T19:22:53.489Z,3.60
2019-01-12T19:25:22.662Z,3.30
2019-01-12T19:27:51.856Z,3.00
2019-01-12T19:30:22.281Z,3.70
2019-01-12T19:32:51.626Z,2.40
2019-01-12T19:35:21.091Z,2.80
2019-01-12T19:37:50.490Z,2.90
2019-01-12T19:40:21.211Z,2.60
2019-01-12T19:42:50.247Z,2.10
2019-01-12T19:45:19.223Z,1.60
2019-01-12T19:47:48.483Z,2.00
2019-01-12T19:50:20.352Z,2.50
2019-01-12T19:52:49.501Z,3.00
2019-01-12T19:55:18.782Z,1.80
2019-01-12T19:57:47.553Z,1.40
2019-01-12T20:00:19.868Z,1.40
2019-01-12T20:02:49.109Z,1.90
2019-01-12T20:05:19.711Z,3.40
2019-01-12T20:07:49.014Z,3.40
2019-01-12T20:10:20.597Z,3.40
2019-01-12T20:12:49.869Z,5.30
2019-01-12T20:15:23.732Z,5.00
2019-01-12T20:17:52.998Z,5.80
2019-01-12T20:20:22.510Z,6.40
2019-01-12T20:22:51.623Z,7.40
2019-01-12T20:25:26.784Z,8.50
2019-01-12T20:27:56.285Z,8.40
2019-01-12T20:30:46.499Z,8.70
2019-01-12T20:33:27.349Z,9.10
2019-01-12T20:36:02.283Z,10.30
2019-01-12T20:38:49.431Z,10.40
2019-01-12T20:41:30.281Z,10.60
2019-01-12T20:44:13.996Z,10.70
2019-01-12T20:46:51.539Z,10.40
2019-01-12T20:49:26.187Z,11.30
2019-01-12T20:52:04.436Z,10.70
2019-01-12T20:54:45.416Z,11.30
2019-01-12T20:57:36.936Z,11.20
2019-01-12T21:00:23.902Z,12.60
2019-01-12T21:03:04.658Z,11.10
2019-01-12T21:05:40.356Z,11.60
2019-01-12T21:08:15.341Z,11.60
2019-01-12T21:11:22.084Z,11.70
2019-01-12T21:14:06.384Z,12.50
2019-01-12T21:16:36.614Z,12.60
2019-01-12T21:19:05.860Z,12.00
2019-01-12T21:21:34.873Z,11.60
2019-01-12T21:24:04.347Z,11.70
2019-01-12T21:26:33.019Z,13.10
2019-01-12T21:29:02.190Z,12.10
2019-01-12T21:31:30.897Z,12.40
2019-01-12T21:33:59.745Z,12.60
2019-01-12T21:36:28.920Z,12.70
2019-01-12T21:38:58.259Z,12.90
2019-01-12T21:41:28.219Z,12.70
2019-01-12T21:43:57.392Z,12.20
2019-01-12T21:46:26.683Z,12.60
2019-01-12T21:48:56.151Z,12.50
2019-01-12T21:51:25.470Z,12.80
2019-01-12T21:53:54.829Z,12.70
2019-01-12T21:56:25.700Z,12.80
2019-01-12T21:58:54.987Z,12.50
2019-01-12T22:01:24.437Z,12.10
2019-01-12T22:03:53.619Z,13.00
2019-01-12T22:06:24.000Z,12.80
2019-01-12T22:08:53.144Z,13.20
2019-01-12T22:11:21.870Z,12.80
2019-01-12T22:13:50.642Z,13.30
2019-01-12T22:16:20.248Z,13.50
2019-01-12T22:18:49.557Z,13.70
2019-01-12T22:21:19.133Z,13.50
2019-01-12T22:23:48.561Z,13.70
2019-01-12T22:26:18.263Z,13.90
2019-01-12T22:28:47.387Z,13.40
2019-01-12T22:31:17.065Z,13.50
2019-01-12T22:33:46.212Z,13.50
2019-01-12T22:36:15.744Z,13.30
2019-01-12T22:38:44.945Z,13.40
2019-01-12T22:41:15.435Z,13.40
2019-01-12T22:43:44.509Z,12.80
2019-01-12T22:46:13.199Z,13.00
2019-01-12T22:48:42.237Z,12.70
2019-01-12T22:51:11.041Z,12.30
2019-01-12T22:53:40.335Z,12.70
2019-01-12T22:56:09.566Z,12.00
2019-01-12T22:58:38.877Z,12.20
2019-01-12T23:01:14.712Z,12.50
2019-01-12T23:03:46.061Z,11.90
2019-01-12T23:06:15.310Z,11.90
2019-01-12T23:08:44.617Z,12.50
2019-01-12T23:11:15.767Z,12.70
2019-01-12T23:13:45.158Z,11.90
2019-01-12T23:16:14.489Z,12.50
2019-01-12T23:18:43.917Z,12.70
2019-01-12T23:21:13.419Z,12.70
2019-01-12T23:23:42.692Z,13.50
2019-01-12T23:26:11.762Z,13.80
2019-01-12T23:28:41.116Z,13.70
2019-01-12T23:31:10.488Z,13.60
2019-01-12T23:33:39.715Z,13.70
2019-01-12T23:36:09.189Z,13.90
2019-01-12T23:38:38.597Z,13.80
2019-01-12T23:41:07.812Z,13.50
2019-01-12T23:43:37.132Z,13.00
2019-01-12T23:46:07.440Z,13.80
2019-01-12T23:48:36.722Z,13.40
2019-01-12T23:51:05.881Z,13.30
2019-01-12T23:53:35.109Z,14.00
2019-01-12T23:56:04.718Z,13.20
2019-01-12T23:58:33.912Z,13.40
